MNE2112 LYTV-LIPZ
Flight info
| Callsign | MNE2112 |
|---|---|
| Flight time | 1h 12m |
| Altitude | 34000 |
| Route | TIBRI DCT MADOS DCT LABIN DCT BASOG |
| Aircraft | A320/M-SDE3FGHIRWY/LB1 |
Departure
| Time | 2026-05-09 16:26 |
|---|---|
| Airport | Tivat Airport (LYTV) |
Arrival
| Time | 2026-05-09 17:39 |
|---|---|
| Airport | Venice Marco Polo Airport (LIPZ) |
| Time | Latitude | Longitude | Altitude | Speed | Heading |
|---|---|---|---|---|---|
| 2026-05-09 16:06 | 42.41292 | 18.71597 | 6 ft | 0 kts | 186° |
| 2026-05-09 16:21 | 42.41279 | 18.71589 | 6 ft | 3 kts | 232° |
| 2026-05-09 16:21 | 42.41291 | 18.71538 | 4 ft | 9 kts | 308° |
| 2026-05-09 16:21 | 42.41342 | 18.71477 | 3 ft | 11 kts | 321° |
| 2026-05-09 16:21 | 42.41377 | 18.71420 | 3 ft | 0 kts | 292° |
| 2026-05-09 16:22 | 42.41351 | 18.71378 | 2 ft | 17 kts | 215° |
| 2026-05-09 16:22 | 42.41222 | 18.71437 | 0 ft | 26 kts | 137° |
| 2026-05-09 16:22 | 42.41075 | 18.71618 | 5 ft | 32 kts | 140° |
| 2026-05-09 16:22 | 42.40888 | 18.71831 | 5 ft | 39 kts | 138° |
| 2026-05-09 16:23 | 42.40720 | 18.72031 | 2 ft | 35 kts | 139° |
| 2026-05-09 16:23 | 42.40512 | 18.72273 | 2 ft | 43 kts | 139° |
| 2026-05-09 16:23 | 42.40308 | 18.72507 | 6 ft | 34 kts | 139° |
| 2026-05-09 16:23 | 42.40142 | 18.72699 | 5 ft | 29 kts | 139° |
| 2026-05-09 16:24 | 42.39965 | 18.72909 | 1 ft | 34 kts | 137° |
| 2026-05-09 16:24 | 42.39823 | 18.73070 | 0 ft | 17 kts | 142° |
| 2026-05-09 16:24 | 42.39724 | 18.73198 | 3 ft | 23 kts | 140° |
| 2026-05-09 16:24 | 42.39615 | 18.73279 | 3 ft | 9 kts | 124° |
| 2026-05-09 16:25 | 42.39638 | 18.73289 | 3 ft | 6 kts | 302° |
| 2026-05-09 16:25 | 42.39678 | 18.73249 | 2 ft | 0 kts | 317° |
| 2026-05-09 16:26 | 42.39846 | 18.73045 | -1 ft | 69 kts | 318° |
| 2026-05-09 16:26 | 42.40359 | 18.72440 | 6 ft | 124 kts | 319° |
| 2026-05-09 16:26 | 42.41106 | 18.71547 | 13 ft | 164 kts | 318° |
| 2026-05-09 16:26 | 42.41971 | 18.70538 | 621 ft | 156 kts | 311° |
| 2026-05-09 16:27 | 42.42612 | 18.69409 | 1169 ft | 153 kts | 303° |
| 2026-05-09 16:27 | 42.43263 | 18.68161 | 1409 ft | 184 kts | 305° |
| 2026-05-09 16:27 | 42.44087 | 18.66630 | 1960 ft | 204 kts | 304° |
| 2026-05-09 16:27 | 42.44788 | 18.64878 | 2790 ft | 220 kts | 285° |
| 2026-05-09 16:28 | 42.44805 | 18.62638 | 3132 ft | 257 kts | 256° |
| 2026-05-09 16:28 | 42.44106 | 18.60343 | 4092 ft | 267 kts | 240° |
| 2026-05-09 16:28 | 42.43075 | 18.58238 | 5217 ft | 270 kts | 239° |
| 2026-05-09 16:28 | 42.42371 | 18.55873 | 6204 ft | 275 kts | 264° |
| 2026-05-09 16:29 | 42.42580 | 18.53353 | 7107 ft | 277 kts | 293° |
| 2026-05-09 16:29 | 42.43618 | 18.51176 | 8096 ft | 278 kts | 313° |
| 2026-05-09 16:29 | 42.44910 | 18.49215 | 9161 ft | 280 kts | 312° |
| 2026-05-09 16:29 | 42.46208 | 18.47220 | 10188 ft | 284 kts | 311° |
| 2026-05-09 16:30 | 42.47561 | 18.45119 | 10681 ft | 307 kts | 311° |
| 2026-05-09 16:30 | 42.48987 | 18.42879 | 11404 ft | 318 kts | 310° |
| 2026-05-09 16:30 | 42.50433 | 18.40588 | 12382 ft | 321 kts | 309° |
| 2026-05-09 16:30 | 42.51877 | 18.38287 | 13425 ft | 323 kts | 309° |
| 2026-05-09 16:31 | 42.53335 | 18.35960 | 14394 ft | 325 kts | 309° |
| 2026-05-09 16:31 | 42.54810 | 18.33605 | 15290 ft | 329 kts | 309° |
| 2026-05-09 16:31 | 42.56305 | 18.31217 | 16153 ft | 333 kts | 309° |
| 2026-05-09 16:31 | 42.57816 | 18.28807 | 17036 ft | 337 kts | 309° |
| 2026-05-09 16:32 | 42.59337 | 18.26378 | 17885 ft | 341 kts | 309° |
| 2026-05-09 16:32 | 42.60340 | 18.24725 | 18439 ft | 343 kts | 305° |
| 2026-05-09 16:32 | 42.62162 | 18.21124 | 19486 ft | 347 kts | 303° |
| 2026-05-09 16:32 | 42.63504 | 18.18449 | 20299 ft | 348 kts | 304° |
| 2026-05-09 16:33 | 42.64873 | 18.15724 | 21123 ft | 350 kts | 304° |
| 2026-05-09 16:33 | 42.66248 | 18.12992 | 21961 ft | 351 kts | 304° |
| 2026-05-09 16:33 | 42.67631 | 18.10240 | 22791 ft | 353 kts | 304° |
| 2026-05-09 16:33 | 42.69017 | 18.07475 | 23579 ft | 355 kts | 304° |
| 2026-05-09 16:34 | 42.70407 | 18.04698 | 24220 ft | 357 kts | 304° |
| 2026-05-09 16:34 | 42.71807 | 18.01900 | 24843 ft | 359 kts | 303° |
| 2026-05-09 16:34 | 42.73216 | 17.99082 | 25418 ft | 360 kts | 303° |
| 2026-05-09 16:34 | 42.74627 | 17.96256 | 25934 ft | 362 kts | 303° |
| 2026-05-09 16:35 | 42.76044 | 17.93416 | 26420 ft | 364 kts | 303° |
| 2026-05-09 16:35 | 42.77469 | 17.90560 | 26869 ft | 366 kts | 303° |
| 2026-05-09 16:35 | 42.78902 | 17.87688 | 27315 ft | 367 kts | 303° |
| 2026-05-09 16:35 | 42.80319 | 17.84839 | 27738 ft | 369 kts | 302° |
| 2026-05-09 16:36 | 42.81758 | 17.81939 | 28168 ft | 369 kts | 302° |
| 2026-05-09 16:36 | 42.86092 | 17.73189 | 29261 ft | 374 kts | 302° |
| 2026-05-09 16:37 | 42.87551 | 17.70242 | 29609 ft | 376 kts | 302° |
| 2026-05-09 16:37 | 42.89019 | 17.67277 | 29976 ft | 378 kts | 302° |
| 2026-05-09 16:37 | 42.90486 | 17.64309 | 30299 ft | 379 kts | 302° |
| 2026-05-09 16:37 | 42.91960 | 17.61318 | 30604 ft | 380 kts | 301° |
| 2026-05-09 16:38 | 42.93438 | 17.58316 | 30906 ft | 381 kts | 301° |
| 2026-05-09 16:38 | 42.94916 | 17.55313 | 31205 ft | 382 kts | 301° |
| 2026-05-09 16:38 | 42.96396 | 17.52308 | 31493 ft | 383 kts | 301° |
| 2026-05-09 16:38 | 42.97887 | 17.49281 | 31803 ft | 384 kts | 301° |
| 2026-05-09 16:39 | 42.99358 | 17.46289 | 32077 ft | 385 kts | 301° |
| 2026-05-09 16:39 | 43.00864 | 17.43222 | 32442 ft | 383 kts | 301° |
| 2026-05-09 16:39 | 43.02327 | 17.40243 | 32845 ft | 381 kts | 301° |
| 2026-05-09 16:39 | 43.03797 | 17.37240 | 33263 ft | 379 kts | 300° |
| 2026-05-09 16:40 | 43.05255 | 17.34255 | 33667 ft | 377 kts | 300° |
| 2026-05-09 16:40 | 43.06703 | 17.31279 | 33998 ft | 377 kts | 300° |
| 2026-05-09 16:42 | 43.17302 | 17.09492 | 34059 ft | 406 kts | 300° |
| 2026-05-09 16:42 | 43.18867 | 17.06264 | 34055 ft | 408 kts | 300° |
| 2026-05-09 16:42 | 43.21998 | 16.99789 | 34273 ft | 397 kts | 300° |
| 2026-05-09 16:43 | 43.23491 | 16.96714 | 34344 ft | 382 kts | 300° |
| 2026-05-09 16:43 | 43.24938 | 16.93720 | 34355 ft | 372 kts | 300° |
| 2026-05-09 16:43 | 43.26340 | 16.90814 | 34358 ft | 358 kts | 300° |
| 2026-05-09 16:43 | 43.27703 | 16.87986 | 34309 ft | 352 kts | 300° |
| 2026-05-09 16:44 | 43.29040 | 16.85209 | 34166 ft | 347 kts | 300° |
| 2026-05-09 16:44 | 43.30373 | 16.82426 | 34114 ft | 349 kts | 299° |
| 2026-05-09 16:44 | 43.33022 | 16.76885 | 34109 ft | 350 kts | 299° |
| 2026-05-09 16:45 | 43.35689 | 16.71295 | 34112 ft | 350 kts | 300° |
| 2026-05-09 16:45 | 43.38368 | 16.65696 | 34109 ft | 352 kts | 299° |
| 2026-05-09 16:46 | 43.41055 | 16.60067 | 34125 ft | 352 kts | 299° |
| 2026-05-09 16:46 | 43.43739 | 16.54425 | 34114 ft | 352 kts | 299° |
| 2026-05-09 16:47 | 43.46398 | 16.48831 | 34073 ft | 352 kts | 299° |
| 2026-05-09 16:47 | 43.49068 | 16.43198 | 34073 ft | 352 kts | 299° |
| 2026-05-09 16:48 | 43.51743 | 16.37560 | 34074 ft | 352 kts | 299° |
| 2026-05-09 16:48 | 43.54416 | 16.31917 | 34070 ft | 352 kts | 298° |
| 2026-05-09 16:49 | 43.57084 | 16.26259 | 34068 ft | 352 kts | 298° |
| 2026-05-09 16:50 | 43.61078 | 16.17757 | 34061 ft | 352 kts | 298° |
| 2026-05-09 16:50 | 43.63723 | 16.12116 | 34057 ft | 352 kts | 298° |
| 2026-05-09 16:51 | 43.66384 | 16.06438 | 34055 ft | 353 kts | 298° |
| 2026-05-09 16:51 | 43.69047 | 16.00743 | 34057 ft | 353 kts | 298° |
| 2026-05-09 16:52 | 43.71706 | 15.95031 | 34056 ft | 353 kts | 298° |
| 2026-05-09 16:52 | 43.73917 | 15.90277 | 34052 ft | 354 kts | 298° |
| 2026-05-09 16:53 | 43.76587 | 15.84541 | 34050 ft | 355 kts | 298° |
| 2026-05-09 16:53 | 43.79259 | 15.78801 | 34052 ft | 355 kts | 298° |
| 2026-05-09 16:54 | 43.81923 | 15.73048 | 34053 ft | 355 kts | 298° |
| 2026-05-09 16:54 | 43.84586 | 15.67280 | 34055 ft | 355 kts | 298° |
| 2026-05-09 16:55 | 43.87232 | 15.61543 | 34056 ft | 356 kts | 298° |
| 2026-05-09 16:55 | 43.89896 | 15.55752 | 34058 ft | 357 kts | 298° |
| 2026-05-09 16:56 | 43.92566 | 15.49956 | 34061 ft | 357 kts | 298° |
| 2026-05-09 16:56 | 43.95235 | 15.44143 | 34083 ft | 357 kts | 297° |
| 2026-05-09 16:57 | 43.97898 | 15.38318 | 34084 ft | 357 kts | 297° |
| 2026-05-09 16:57 | 44.00550 | 15.32500 | 34083 ft | 356 kts | 297° |
| 2026-05-09 16:58 | 44.03179 | 15.26728 | 34073 ft | 356 kts | 297° |
| 2026-05-09 16:58 | 44.05833 | 15.20894 | 34072 ft | 357 kts | 297° |
| 2026-05-09 16:59 | 44.08482 | 15.15054 | 34071 ft | 357 kts | 297° |
| 2026-05-09 16:59 | 44.11132 | 15.09196 | 34067 ft | 357 kts | 297° |
| 2026-05-09 17:00 | 44.13784 | 15.03345 | 34062 ft | 358 kts | 297° |
| 2026-05-09 17:00 | 44.16432 | 14.97483 | 34045 ft | 359 kts | 297° |
| 2026-05-09 17:01 | 44.19085 | 14.91578 | 34034 ft | 361 kts | 297° |
| 2026-05-09 17:01 | 44.21738 | 14.85666 | 34037 ft | 363 kts | 297° |
| 2026-05-09 17:02 | 44.24412 | 14.79700 | 34048 ft | 363 kts | 297° |
| 2026-05-09 17:02 | 44.27090 | 14.73722 | 34046 ft | 364 kts | 297° |
| 2026-05-09 17:02 | 44.28433 | 14.70714 | 33920 ft | 370 kts | 297° |
| 2026-05-09 17:03 | 44.29800 | 14.67640 | 33651 ft | 375 kts | 297° |
| 2026-05-09 17:04 | 44.39379 | 14.46114 | 31819 ft | 369 kts | 298° |
| 2026-05-09 17:05 | 44.40709 | 14.43108 | 31580 ft | 367 kts | 298° |
| 2026-05-09 17:05 | 44.42050 | 14.40070 | 31330 ft | 366 kts | 298° |
| 2026-05-09 17:05 | 44.43382 | 14.37049 | 31091 ft | 365 kts | 298° |
| 2026-05-09 17:05 | 44.44717 | 14.34021 | 30845 ft | 365 kts | 298° |
| 2026-05-09 17:06 | 44.46045 | 14.31005 | 30602 ft | 364 kts | 298° |
| 2026-05-09 17:06 | 44.47367 | 14.27993 | 30363 ft | 363 kts | 298° |
| 2026-05-09 17:06 | 44.48684 | 14.24994 | 30123 ft | 361 kts | 298° |
| 2026-05-09 17:06 | 44.49999 | 14.21999 | 29864 ft | 360 kts | 298° |
| 2026-05-09 17:07 | 44.51304 | 14.19027 | 29594 ft | 358 kts | 298° |
| 2026-05-09 17:07 | 44.52168 | 14.17061 | 29415 ft | 357 kts | 298° |
| 2026-05-09 17:07 | 44.53891 | 14.13137 | 29045 ft | 355 kts | 298° |
| 2026-05-09 17:07 | 44.55182 | 14.10192 | 28770 ft | 354 kts | 298° |
| 2026-05-09 17:08 | 44.56464 | 14.07258 | 28502 ft | 353 kts | 298° |
| 2026-05-09 17:08 | 44.59011 | 14.01411 | 27974 ft | 351 kts | 298° |
| 2026-05-09 17:08 | 44.60283 | 13.98497 | 27712 ft | 350 kts | 299° |
| 2026-05-09 17:09 | 44.61558 | 13.95575 | 27458 ft | 349 kts | 299° |
| 2026-05-09 17:09 | 44.62822 | 13.92668 | 27197 ft | 348 kts | 299° |
| 2026-05-09 17:09 | 44.64074 | 13.89779 | 26937 ft | 347 kts | 299° |
| 2026-05-09 17:09 | 44.65326 | 13.86886 | 26690 ft | 346 kts | 299° |
| 2026-05-09 17:10 | 44.66577 | 13.84005 | 26438 ft | 345 kts | 299° |
| 2026-05-09 17:10 | 44.67824 | 13.81139 | 26197 ft | 344 kts | 299° |
| 2026-05-09 17:10 | 44.69050 | 13.78310 | 25950 ft | 343 kts | 299° |
| 2026-05-09 17:10 | 44.70282 | 13.75452 | 25707 ft | 341 kts | 299° |
| 2026-05-09 17:11 | 44.71511 | 13.72605 | 25467 ft | 341 kts | 299° |
| 2026-05-09 17:11 | 44.72744 | 13.69751 | 25227 ft | 341 kts | 299° |
| 2026-05-09 17:11 | 44.73975 | 13.66895 | 24988 ft | 341 kts | 299° |
| 2026-05-09 17:11 | 44.75200 | 13.64051 | 24749 ft | 340 kts | 299° |
| 2026-05-09 17:12 | 44.76415 | 13.61219 | 24525 ft | 339 kts | 299° |
| 2026-05-09 17:12 | 44.77629 | 13.58387 | 24302 ft | 336 kts | 299° |
| 2026-05-09 17:12 | 44.78829 | 13.55586 | 24075 ft | 334 kts | 299° |
| 2026-05-09 17:12 | 44.80032 | 13.52777 | 23842 ft | 333 kts | 300° |
| 2026-05-09 17:13 | 44.81227 | 13.49986 | 23608 ft | 333 kts | 300° |
| 2026-05-09 17:13 | 44.82419 | 13.47202 | 23341 ft | 332 kts | 300° |
| 2026-05-09 17:13 | 44.83609 | 13.44419 | 23068 ft | 331 kts | 300° |
| 2026-05-09 17:13 | 44.84777 | 13.41680 | 22794 ft | 330 kts | 299° |
| 2026-05-09 17:14 | 44.85957 | 13.38908 | 22531 ft | 330 kts | 300° |
| 2026-05-09 17:14 | 44.87141 | 13.36132 | 22274 ft | 330 kts | 300° |
| 2026-05-09 17:14 | 44.88322 | 13.33365 | 22006 ft | 329 kts | 299° |
| 2026-05-09 17:14 | 44.89498 | 13.30604 | 21745 ft | 328 kts | 299° |
| 2026-05-09 17:15 | 44.90673 | 13.27846 | 21490 ft | 327 kts | 299° |
| 2026-05-09 17:15 | 44.91841 | 13.25097 | 21231 ft | 326 kts | 299° |
| 2026-05-09 17:15 | 44.93002 | 13.22352 | 20982 ft | 325 kts | 299° |
| 2026-05-09 17:15 | 44.94159 | 13.19615 | 20729 ft | 324 kts | 299° |
| 2026-05-09 17:16 | 44.95313 | 13.16885 | 20484 ft | 324 kts | 299° |
| 2026-05-09 17:17 | 45.01586 | 12.97021 | 18509 ft | 311 kts | 288° |
| 2026-05-09 17:18 | 45.02301 | 12.94147 | 18092 ft | 310 kts | 288° |
| 2026-05-09 17:18 | 45.03011 | 12.91282 | 17690 ft | 307 kts | 288° |
| 2026-05-09 17:18 | 45.03712 | 12.88446 | 17304 ft | 305 kts | 288° |
| 2026-05-09 17:18 | 45.04407 | 12.85624 | 16912 ft | 303 kts | 288° |
| 2026-05-09 17:19 | 45.05093 | 12.82825 | 16552 ft | 301 kts | 288° |
| 2026-05-09 17:19 | 45.05777 | 12.80035 | 16165 ft | 300 kts | 288° |
| 2026-05-09 17:19 | 45.06447 | 12.77293 | 15799 ft | 298 kts | 288° |
| 2026-05-09 17:19 | 45.07122 | 12.74523 | 15426 ft | 297 kts | 288° |
| 2026-05-09 17:20 | 45.07797 | 12.71758 | 15052 ft | 297 kts | 288° |
| 2026-05-09 17:20 | 45.08470 | 12.69002 | 14684 ft | 296 kts | 288° |
| 2026-05-09 17:20 | 45.09146 | 12.66247 | 14317 ft | 296 kts | 288° |
| 2026-05-09 17:20 | 45.09820 | 12.63499 | 13950 ft | 296 kts | 288° |
| 2026-05-09 17:21 | 45.10495 | 12.60740 | 13555 ft | 296 kts | 288° |
| 2026-05-09 17:21 | 45.11161 | 12.58001 | 13182 ft | 295 kts | 288° |
| 2026-05-09 17:21 | 45.11825 | 12.55256 | 12818 ft | 293 kts | 288° |
| 2026-05-09 17:21 | 45.12483 | 12.52530 | 12458 ft | 292 kts | 288° |
| 2026-05-09 17:22 | 45.13140 | 12.49813 | 12097 ft | 291 kts | 288° |
| 2026-05-09 17:22 | 45.13808 | 12.47122 | 11839 ft | 291 kts | 289° |
| 2026-05-09 17:22 | 45.14522 | 12.44377 | 11619 ft | 302 kts | 290° |
| 2026-05-09 17:22 | 45.15254 | 12.41618 | 11386 ft | 303 kts | 290° |
| 2026-05-09 17:23 | 45.15996 | 12.38830 | 11141 ft | 302 kts | 290° |
| 2026-05-09 17:23 | 45.16736 | 12.36049 | 10903 ft | 302 kts | 290° |
| 2026-05-09 17:23 | 45.17471 | 12.33265 | 10670 ft | 301 kts | 290° |
| 2026-05-09 17:23 | 45.18202 | 12.30483 | 10438 ft | 301 kts | 290° |
| 2026-05-09 17:25 | 45.18854 | 12.16434 | 9267 ft | 279 kts | 265° |
| 2026-05-09 17:25 | 45.18711 | 12.13734 | 9135 ft | 270 kts | 265° |
| 2026-05-09 17:25 | 45.18331 | 12.11209 | 8987 ft | 262 kts | 248° |
| 2026-05-09 17:25 | 45.17419 | 12.08981 | 8798 ft | 257 kts | 230° |
| 2026-05-09 17:26 | 45.16128 | 12.07214 | 8680 ft | 259 kts | 222° |
| 2026-05-09 17:26 | 45.14802 | 12.05554 | 8553 ft | 259 kts | 222° |
| 2026-05-09 17:26 | 45.13451 | 12.03859 | 8422 ft | 259 kts | 223° |
| 2026-05-09 17:26 | 45.12117 | 12.02180 | 8307 ft | 256 kts | 223° |
| 2026-05-09 17:27 | 45.10789 | 12.00503 | 8166 ft | 255 kts | 223° |
| 2026-05-09 17:27 | 45.09463 | 11.98830 | 8049 ft | 255 kts | 223° |
| 2026-05-09 17:27 | 45.08185 | 11.97125 | 7926 ft | 249 kts | 232° |
| 2026-05-09 17:27 | 45.07392 | 11.95025 | 7791 ft | 238 kts | 256° |
| 2026-05-09 17:28 | 45.07174 | 11.92738 | 7642 ft | 234 kts | 273° |
| 2026-05-09 17:28 | 45.07481 | 11.90562 | 7527 ft | 217 kts | 290° |
| 2026-05-09 17:28 | 45.08162 | 11.88760 | 7390 ft | 200 kts | 306° |
| 2026-05-09 17:28 | 45.09084 | 11.87395 | 7261 ft | 186 kts | 321° |
| 2026-05-09 17:29 | 45.10152 | 11.86481 | 7086 ft | 175 kts | 335° |
| 2026-05-09 17:29 | 45.11296 | 11.86000 | 6798 ft | 174 kts | 350° |
| 2026-05-09 17:29 | 45.12499 | 11.85942 | 6469 ft | 174 kts | 4° |
| 2026-05-09 17:29 | 45.13684 | 11.86320 | 6131 ft | 175 kts | 19° |
| 2026-05-09 17:30 | 45.14763 | 11.87105 | 5798 ft | 175 kts | 34° |
| 2026-05-09 17:30 | 45.15668 | 11.88243 | 5515 ft | 179 kts | 49° |
| 2026-05-09 17:30 | 45.16438 | 11.89895 | 5388 ft | 221 kts | 61° |
| 2026-05-09 17:30 | 45.17191 | 11.91884 | 5270 ft | 233 kts | 61° |
| 2026-05-09 17:31 | 45.18075 | 11.93814 | 5143 ft | 234 kts | 47° |
| 2026-05-09 17:31 | 45.19257 | 11.95387 | 5018 ft | 233 kts | 40° |
| 2026-05-09 17:32 | 45.24075 | 12.01445 | 4514 ft | 231 kts | 41° |
| 2026-05-09 17:32 | 45.25272 | 12.02957 | 4389 ft | 231 kts | 41° |
| 2026-05-09 17:32 | 45.26470 | 12.04473 | 4258 ft | 230 kts | 40° |
| 2026-05-09 17:33 | 45.27669 | 12.05988 | 4136 ft | 231 kts | 40° |
| 2026-05-09 17:33 | 45.28866 | 12.07504 | 3997 ft | 231 kts | 40° |
| 2026-05-09 17:33 | 45.30063 | 12.09025 | 3883 ft | 230 kts | 40° |
| 2026-05-09 17:33 | 45.31256 | 12.10543 | 3762 ft | 230 kts | 41° |
| 2026-05-09 17:34 | 45.32446 | 12.12058 | 3631 ft | 230 kts | 40° |
| 2026-05-09 17:35 | 45.39355 | 12.20885 | 2648 ft | 213 kts | 40° |
| 2026-05-09 17:35 | 45.40455 | 12.22291 | 2354 ft | 212 kts | 40° |
| 2026-05-09 17:36 | 45.41552 | 12.23694 | 2073 ft | 212 kts | 41° |
| 2026-05-09 17:36 | 45.42651 | 12.25101 | 1787 ft | 211 kts | 42° |
| 2026-05-09 17:36 | 45.43736 | 12.26489 | 1541 ft | 206 kts | 43° |
| 2026-05-09 17:36 | 45.44762 | 12.27803 | 1263 ft | 185 kts | 44° |
| 2026-05-09 17:37 | 45.45664 | 12.28957 | 1014 ft | 165 kts | 44° |
| 2026-05-09 17:37 | 45.46477 | 12.30005 | 766 ft | 153 kts | 46° |
| 2026-05-09 17:37 | 45.47245 | 12.30999 | 617 ft | 150 kts | 46° |
| 2026-05-09 17:37 | 45.48024 | 12.31988 | 447 ft | 150 kts | 46° |
| 2026-05-09 17:38 | 45.48797 | 12.32990 | 225 ft | 150 kts | 46° |
| 2026-05-09 17:38 | 45.49573 | 12.33974 | 47 ft | 149 kts | 44° |
| 2026-05-09 17:38 | 45.50269 | 12.34896 | 15 ft | 119 kts | 44° |
| 2026-05-09 17:39 | 45.50739 | 12.35387 | 16 ft | 19 kts | 3° |
| 2026-05-09 17:39 | 45.50823 | 12.35392 | 16 ft | 6 kts | 0° |
| 2026-05-09 17:39 | 45.50874 | 12.35392 | 16 ft | 9 kts | 0° |
| 2026-05-09 17:39 | 45.50942 | 12.35382 | 17 ft | 11 kts | 339° |
| 2026-05-09 17:40 | 45.50971 | 12.35295 | 17 ft | 13 kts | 258° |
| 2026-05-09 17:40 | 45.50969 | 12.35288 | 17 ft | 0 kts | 249° |
| 2026-05-09 17:41 | 45.50966 | 12.35277 | 17 ft | 3 kts | 249° |
| 2026-05-09 17:41 | 45.50954 | 12.35223 | 16 ft | 8 kts | 252° |
| 2026-05-09 17:41 | 45.50916 | 12.35153 | 16 ft | 11 kts | 216° |
| 2026-05-09 17:41 | 45.50855 | 12.35074 | 16 ft | 12 kts | 222° |
| 2026-05-09 17:42 | 45.50839 | 12.35055 | 16 ft | 0 kts | 222° |
| 2026-05-09 17:42 | 45.50838 | 12.35053 | 16 ft | 1 kts | 222° |
| 2026-05-09 17:42 | 45.50824 | 12.35035 | 16 ft | 5 kts | 222° |
| 2026-05-09 17:42 | 45.50784 | 12.34984 | 16 ft | 10 kts | 222° |
| 2026-05-09 17:43 | 45.50719 | 12.34899 | 17 ft | 15 kts | 222° |
| 2026-05-09 17:43 | 45.50627 | 12.34781 | 16 ft | 20 kts | 221° |
| 2026-05-09 17:43 | 45.50513 | 12.34636 | 16 ft | 22 kts | 221° |
| 2026-05-09 17:43 | 45.50402 | 12.34497 | 16 ft | 17 kts | 221° |
| 2026-05-09 17:44 | 45.50315 | 12.34382 | 18 ft | 14 kts | 220° |
| 2026-05-09 17:44 | 45.50258 | 12.34311 | 16 ft | 5 kts | 222° |
| 2026-05-09 17:44 | 45.50236 | 12.34281 | 16 ft | 7 kts | 230° |
| 2026-05-09 17:44 | 45.50236 | 12.34254 | 16 ft | 4 kts | 274° |
| 2026-05-09 17:45 | 45.50260 | 12.34207 | 16 ft | 8 kts | 312° |
| 2026-05-09 17:45 | 45.50273 | 12.34187 | 16 ft | 1 kts | 312° |
| 2026-05-09 17:45 | 45.50280 | 12.34176 | 16 ft | 2 kts | 313° |
| 2026-05-09 17:45 | 45.50282 | 12.34173 | 16 ft | 0 kts | 313° |